Dirección General De Aeronáutica Civil

Dirección Meteorológica de Chile - Servicios Climáticos

Informe General de Control de Calidad de la Estación

Listado de niveles de control de calidad para algunos parámetros
Estación Copiapó, Chamonate Ad. (270002)
Fecha de Revisión de los datos :

Elementos

Registros Niveles de Control Total
Nivel 0 Nivel 1 Nivel 2 Nivel 3 Errores Porcentaje
01 Temperatura del Aire Seco 223.022 0 . 10 0.00 % 0 . 0 . 10 0.00 %
02 Temperatura de Rocío 190.038 0 . 0 . 0 . 0 . 0 0.00 %
03 Humedad Relativa del Aire 199.540 0 . 0 . 0 . 0 . 0 0.00 %
04 Temperatura Máxima PM 18.681 0 . 0 . 12 0.06 % 0 . 12 0.06 %
05 Temperatura Mínima AM 18.561 0 . 0 . 10 0.05 % 0 . 10 0.05 %
06 Viento a 10 m. de Altura 223.742 1 0.00 % 0 . 0 . 0 . 1 0.00 %
07 Agua Caida, Acumulada 6 Horas 65.159 0 . 0 . 0 . 0 . 0 0.00 %
08 Presión Atm. a Nivel de Estación (QFE) 181.946 0 . 0 . 0 . 0 . 0 0.00 %
09 Presión Atm. a Nivel Medio del Mar (QFF) 184.457 0 . 0 . 0 . 0 . 0 0.00 %
10 Tiempo Pasado Sinóptico 2.942 0 . 0 . 0 . 0 . 0 0.00 %
11 Tiempo Presente Sinóptico 117.022 0 . 1 0.00 % 0 . 0 . 1 0.00 %

Totales

1.425.110 . 0.0001 % . 0.0008 % . 0.0015 % . 0.0000 % 34 0.0024 %

Detalle de Errores Encontrados

Nivel Fecha del Dato Descripción Información Error Fecha Ingreso
0 1953-07-27 23:00:00 ff (Intensidad del Viento) debe ser numerico, entre 0 y 70 kt. 100 2020-07-31 22:11:00
Errores del Nivel 1
Nivel Fecha del Dato Descripción Información Error Fecha Ingreso
1 1952-11-18 12:00:00 HR (Humedad Relativa) es igual a 100% y Ts <> Td 13.0 - 11.6 2020-07-30 15:29:00
1 1954-04-02 12:00:00 HR (Humedad Relativa) es igual a 100% y Ts <> Td 13.0 - 12.1 2020-08-06 18:48:00
1 1954-07-26 12:00:00 HR (Humedad Relativa) es igual a 100% y Ts <> Td 6.6 - 6.2 2020-08-07 17:26:00
1 1967-06-18 18:00:00 HR (Humedad Relativa) es igual a 100% y Ts <> Td 17.0 - 13.6 2013-03-22 02:23:00
1 1973-09-20 12:00:00 HR (Humedad Relativa) es igual a 100% y Ts <> Td 8.4 - 8.0 2020-06-15 16:13:00
1 1983-05-28 12:30:00 Ts debe ser mayor o igual a Td Ts=7.2 - Td=7.6 2013-03-22 00:08:00
1 1998-03-05 11:30:00 Ts debe ser mayor o igual a Td Ts=15.2 - Td=17.5 2013-03-22 00:56:00
1 2002-12-02 14:30:00 Ts debe ser mayor o igual a Td Ts=13.0 - Td=15.6 2013-03-22 01:11:00
1 2004-09-14 14:25:00 Ts debe ser mayor o igual a Td Ts=12.8 - Td=40.9 2013-03-22 01:18:00
1 2004-09-18 15:15:00 Ts debe ser mayor o igual a Td Ts=12.0 - Td=40.9 2013-03-22 01:18:00
1 2004-04-13 12:00:00 (ts - td > 5.0) y ((ww >= 40 y ww <= 49)) 45 2013-03-21 17:26:00
Errores del Nivel 11
Nivel Fecha del Dato Descripción Información Error Fecha Ingreso
2 1954-04-02 00:00:00 Temperatura 26.0 del 01-04-1954 18:00, Mayor que la Máxima 24.4 02-04-1954 00:00 26.0 -- 24.4 2012-09-05 16:39:00
2 1954-05-06 00:00:00 Temperatura 22.2 del 05-05-1954 18:00, Mayor que la Máxima 21.0 06-05-1954 00:00 22.2 -- 21.0 2012-09-13 13:52:00
2 1957-01-15 00:00:00 Temperatura 28.8 del 14-01-1957 18:00, Mayor que la Máxima 28.6 15-01-1957 00:00 28.8 -- 28.6 2013-03-21 22:50:00
2 1960-07-08 00:00:00 Temperatura 19.4 del 07-07-1960 23:00, Mayor que la Máxima 18.0 08-07-1960 00:00 19.4 -- 18.0 2013-03-21 22:51:00
2 1961-05-06 00:00:00 Temperatura 28.0 del 05-05-1961 18:00, Mayor que la Máxima 24.6 06-05-1961 00:00 28.0 -- 24.6 2013-03-21 22:51:00
2 1964-03-25 00:00:00 Temperatura 30.2 del 24-03-1964 23:00, Mayor que la Máxima 25.4 25-03-1964 00:00 30.2 -- 25.4 2013-03-21 22:52:00
2 1964-11-20 00:00:00 Temperatura 27.4 del 19-11-1964 18:00, Mayor que la Máxima 26.0 20-11-1964 00:00 27.4 -- 26.0 2013-03-21 22:52:00
2 1964-11-24 00:00:00 Temperatura 26.8 del 23-11-1964 18:00, Mayor que la Máxima 25.2 24-11-1964 00:00 26.8 -- 25.2 2013-03-21 22:52:00
2 1966-12-25 00:00:00 Temperatura 27.2 del 24-12-1966 18:00, Mayor que la Máxima 26.4 25-12-1966 00:00 27.2 -- 26.4 2013-03-21 22:52:00
2 1967-05-21 00:00:00 Temperatura 16.0 del 20-05-1967 23:00, Mayor que la Máxima 15.8 21-05-1967 00:00 16.0 -- 15.8 2013-03-21 22:53:00
2 1969-08-27 00:00:00 Temperatura 16.0 del 26-08-1969 18:00, Mayor que la Máxima 15.0 27-08-1969 00:00 16.0 -- 15.0 2013-03-21 22:53:00
2 2004-04-17 00:00:00 Temperatura 23.8 del 16-04-2004 15:30, Mayor que la Máxima 23.7 17-04-2004 00:00 23.8 -- 23.7 2013-03-21 23:03:00
2 1954-04-08 12:00:00 Temperatura 12.0 del 08-04-1954 12:00, Menor que la Mínima 12.2 08-04-1954 12:00 12.0 -- 12.2 2012-09-05 19:12:00
2 1954-07-20 12:00:00 Temperatura 0.2 del 20-07-1954 12:00, Menor que la Mínima 0.4 20-07-1954 12:00 0.2 -- 0.4 2017-03-10 15:55:00
2 1955-10-25 12:00:00 Temperatura 10.2 del 25-10-1955 12:00, Menor que la Mínima 10.4 25-10-1955 12:00 10.2 -- 10.4 2013-03-21 23:04:00
2 1956-05-06 12:00:00 Temperatura 7.0 del 06-05-1956 12:00, Menor que la Mínima 8.2 06-05-1956 12:00 7.0 -- 8.2 2013-03-21 23:04:00
2 1963-07-18 12:00:00 Temperatura 2.4 del 18-07-1963 12:00, Menor que la Mínima 8.2 18-07-1963 12:00 2.4 -- 8.2 2013-03-21 23:06:00
2 1966-03-22 12:00:00 Temperatura 11.4 del 22-03-1966 12:00, Menor que la Mínima 11.6 22-03-1966 12:00 11.4 -- 11.6 2013-03-21 23:06:00
2 1997-03-14 12:00:00 Temperatura 12.0 del 14-03-1997 11:30, Menor que la Mínima 12.3 14-03-1997 12:00 12.0 -- 12.3 2013-03-21 23:15:00
2 1997-12-05 12:00:00 Temperatura 16.0 del 05-12-1997 11:30, Menor que la Mínima 16.3 05-12-1997 12:00 16.0 -- 16.3 2013-03-21 23:15:00
2 1998-12-29 12:00:00 Temperatura 16.6 del 29-12-1998 11:30, Menor que la Mínima 16.8 29-12-1998 12:00 16.6 -- 16.8 2013-03-21 23:15:00
2 2002-11-05 12:00:00 Temperatura 10.7 del 05-11-2002 11:30, Menor que la Mínima 10.8 05-11-2002 12:00 10.7 -- 10.8 2013-03-21 23:16:00
Errores del Nivel 22
Informe generado el 16-07-2024 19:05
Requerimiento: RE6001